Nearby METAR Reports

KLNK - Lincoln, Nebraska, USA
Distance from station: WNW 8mi, 13km
Updated: Mon, 19-Oct-2020 8:54pm CDT
Clear
Clear
 Wind from SSE
Wind: SSE 5 mph , 7 km/h
Temperature: 43°F , 6°C
Wind Chill: 40°F , 4°C
Dew Point: 30°F , -1°C
Humidity: 61%
Barometer: 30.17 inHg , 1021.7 hPa
Clouds: Clear
Visibility: 10 miles , 16 km
2020/10/20 01:54 KLNK 200154Z 15004KT 10SM CLR 06/M01 A3017 RMK AO2 SLP224 T00561011
KAHQ - Wahoo, Nebraska, USA
Distance from station: N 31mi, 49km
Updated: Mon, 19-Oct-2020 9:15pm CDT
Clear
Clear
 Wind from calm
Wind: Calm
Temperature: 37°F , 3°C
Dew Point: 34°F , 1°C
Humidity: 87%
Barometer: 30.16 inHg , 1021.3 hPa
Clouds: Clear
Visibility: 10 miles , 16 km
2020/10/20 02:15 KAHQ 200215Z AUTO 00000KT 10SM CLR 03/01 A3016 RMK AO2 T00310006
 
KBIE - Beatrice Municip, Nebraska, USA
Distance from station: S 36mi, 57km
Updated: Mon, 19-Oct-2020 9:15pm CDT
Clear
Clear
 Wind from calm
Wind: Calm
Temperature: 39°F , 4°C
Dew Point: 30°F , -1°C
Humidity: 70%
Barometer: 30.16 inHg , 1021.3 hPa
Clouds: Clear
Visibility: 10 miles , 16 km
2020/10/20 02:15 KBIE 200215Z AUTO 00000KT 10SM CLR 04/M01 A3016 RMK AO2 T00351012
KMLE - Omaha/Millard, Nebraska, USA
Distance from station: NE 39mi, 63km
Updated: Mon, 19-Oct-2020 9:15pm CDT
Clear
Clear
 Wind from ESE
Wind: ESE 3 mph , 6 km/h
Temperature: 41°F , 5°C
Dew Point: 32°F , 0°C
Humidity: 70%
Barometer: 30.18 inHg , 1022 hPa
Clouds: Clear
Visibility: 10 miles , 16 km
2020/10/20 02:15 KMLE 200215Z AUTO 12003KT 10SM CLR 05/00 A3018 RMK AO2 T00450000
 
KPMV - Plattsmouth Muni, Nebraska, USA
Distance from station: ENE 39mi, 63km
Updated: Mon, 19-Oct-2020 9:15pm CDT
Clear
Clear
 Wind from E
Wind: E 3 mph , 6 km/h
Temperature: 37°F , 3°C
Dew Point: 30°F , -1°C
Humidity: 75%
Barometer: 30.17 inHg , 1021.7 hPa
Clouds: Clear
Visibility: 10 miles , 16 km
2020/10/20 02:15 KPMV 200215Z AUTO 08003KT 10SM CLR 03/M01 A3017 RMK AO2 T00311013
KAFK - Nebraska City, Nebraska, USA
Distance from station: ESE 43mi, 69km
Updated: Mon, 19-Oct-2020 9:15pm CDT
Overcast
Overcast
 Wind from ESE
Wind: ESE 6 mph , 9 km/h
Temperature: 43°F , 6°C
Wind Chill: 39°F , 4°C
Dew Point: 32°F , 0°C
Humidity: 66%
Barometer: 30.16 inHg , 1021.3 hPa
Clouds: Overcast
Visibility: 10 miles , 16 km
Cloud details: Overcast 2600 ft
2020/10/20 02:15 KAFK 200215Z AUTO 11005KT 10SM OVC026 06/00 A3016 RMK AO2 T00560000
 
KOFF - Offutt Afb/Belle, Nebraska, USA
Distance from station: ENE 44mi, 70km
Updated: Mon, 19-Oct-2020 8:56pm CDT
Mostly Cloudy
Mostly Cloudy
 Wind from ENE
Wind: ENE 8 mph , 13 km/h
Temperature: 37°F , 3°C
Wind Chill: 31°F , -1°C
Dew Point: 30°F , -1°C
Humidity: 75%
Barometer: 30.16 inHg , 1021.3 hPa
Clouds: Mostly Cloudy
Visibility: 10 miles , 16 km
Cloud details: Mostly Cloudy 13000 ft
2020/10/20 01:56 KOFF 200156Z AUTO 06007KT 10SM BKN130 03/M01 A3016 RMK AO2 SLP226 T00321008 $
KFET - Fremont Muni Arp, Nebraska, USA
Distance from station: N 46mi, 74km
Updated: Mon, 19-Oct-2020 9:15pm CDT
Clear
Clear
 Wind from E
Wind: E 5 mph , 7 km/h
Temperature: 37°F , 3°C
Wind Chill: 33°F , 1°C
Dew Point: 34°F , 1°C
Humidity: 87%
Barometer: 30.16 inHg , 1021.3 hPa
Clouds: Clear
Visibility: 10 miles , 16 km
2020/10/20 02:15 KFET 200215Z AUTO 09004KT 10SM CLR 03/01 A3016 RMK AO2 T00300007
 
KBTA - Blair Muni, Nebraska, USA
Distance from station: NNE 51mi, 82km
Updated: Mon, 19-Oct-2020 9:15pm CDT
Overcast
Overcast
 Wind from E
Wind: E 8 mph , 13 km/h
Temperature: 37°F , 3°C
Wind Chill: 31°F , -1°C
Dew Point: 34°F , 1°C
Humidity: 87%
Barometer: 30.16 inHg , 1021.3 hPa
Clouds: Overcast
Visibility: 10 miles , 16 km
Cloud details: Overcast 3700 ft
2020/10/20 02:15 KBTA 200215Z AUTO 10007KT 10SM OVC037 03/01 A3016 RMK AO2 T00260005
KJYR - York, Nebraska, USA
Distance from station: W 52mi, 84km
Updated: Mon, 19-Oct-2020 9:15pm CDT
Clear
Clear
 Wind from SE
Wind: SE 7 mph , 11 km/h
Temperature: 43°F , 6°C
Wind Chill: 39°F , 4°C
Dew Point: 34°F , 1°C
Humidity: 71%
Barometer: 30.13 inHg , 1020.3 hPa
Clouds: Clear
Visibility: 10 miles , 16 km
2020/10/20 02:15 KJYR 200215Z AUTO 14006KT 10SM CLR 06/01 A3013 RMK AO2
 
KOMA - Omaha/Eppley, Nebraska, USA
Distance from station: NE 53mi, 85km
Updated: Mon, 19-Oct-2020 8:52pm CDT
Mostly Cloudy
Mostly Cloudy
 Wind from E
Wind: E 10 mph , 17 km/h
Temperature: 37°F , 3°C
Wind Chill: 30°F , -1°C
Dew Point: 32°F , 0°C
Humidity: 81%
Barometer: 30.18 inHg , 1022 hPa
Clouds: Mostly Cloudy
Visibility: 10 miles , 16 km
Cloud details: Mostly Cloudy 13000 ft
2020/10/20 01:52 KOMA 200152Z 10009KT 10SM BKN130 03/00 A3018 RMK AO2 SLP226 T00330000
KOLU - Columbus Muni, Nebraska, USA
Distance from station: NW 58mi, 93km
Updated: Mon, 19-Oct-2020 8:56pm CDT
Few Clouds
Few Clouds
 Wind from E
Wind: E 8 mph , 13 km/h
Temperature: 37°F , 3°C
Wind Chill: 31°F , -1°C
Dew Point: 34°F , 1°C
Humidity: 87%
Barometer: 30.15 inHg , 1021 hPa
Clouds: Few Clouds
Visibility: 10 miles , 16 km
Cloud details: Few Clouds 12000 ft
2020/10/20 01:56 KOLU 200156Z AUTO 10007KT 10SM FEW120 03/01 A3015 RMK AO2 SLP225 T00280011